Bolzano Airport LIPB

Flugplatz Daten

Name: Bolzano Airport

Ident: LIPB

Lat: 46,46020126

Long: 11,3263998

Platzhöhe: 789 ft

IataCode: BZO

City: Bolzano

Homepage: http://www.abd-airport.it/en/home.htm

Metar

2021/12/03 21:50
LIPB 032150Z VRB01KT CAVOK 00/M07 Q1016 RMK MON INVIS

Taf

2021/12/03 18:03
TAF TAF LIPB 032257Z 0318/0418 CNL

Webcams

Airport Airport 2 Panorama
Gewünschte Webcam nicht vorhanden? Dann fügen Sie eine hinzu. Sie wird dann so schnell wie möglich freigeschaltet
Url: Title: